Egmondgracht — PDWG — position and weather

sailwx.info

Track history (hours):
 
Tides and Currents Weather Stations Pressure Air Temp Water Temp Dewpoint Dewpoint Depression Visibility Wind Speed Wind Dir Waves Ship Positions

Egmondgracht

Last reported at 2014-Sep-16 18:32 UTC. Time now 2014-Sep-16 19:32 UTC.
Position N 38°01' E 023°32'.

Length 136 m; beam 19 m; draft 9 m.

Type: Cargo ship. MMSI: 245716000.

Date/timePositionNaut miles runAvg speedWind from/ knotsBaromVisibWave heightAir tempDewpointWater temp
2014-Sep-16 18:32N 38°01' E 023°32'0 0.0
2014-Sep-16 17:32N 38°01' E 023°32'0 0.0
2014-Sep-16 16:32N 38°01' E 023°32'0 0.0
2014-Sep-16 15:29N 38°01' E 023°32'0 0.0
2014-Sep-16 14:32N 38°01' E 023°32'0 0.0
2014-Sep-16 13:32N 38°01' E 023°32'0 0.1
2014-Sep-16 11:32N 38°02' E 023°32'0 0.0
2014-Sep-16 08:17N 38°01' E 023°32'0 0.0
2014-Sep-16 07:32N 38°01' E 023°32'0 0.0
2014-Sep-16 06:32N 38°01' E 023°32'0 0.0
2014-Sep-16 05:32N 38°01' E 023°32'0 0.0
2014-Sep-16 04:17N 38°01' E 023°32'0 0.0
2014-Sep-16 03:16N 38°01' E 023°32'0 0.0
2014-Sep-16 02:31N 38°01' E 023°32'0 0.0
2014-Sep-16 01:31N 38°01' E 023°32'0 0.0
2014-Sep-16 00:31N 38°01' E 023°32'0 0.0
2014-Sep-15 23:16N 38°01' E 023°32'0 0.0
2014-Sep-15 22:28N 38°01' E 023°32'0 0.0
2014-Sep-15 21:16N 38°01' E 023°32'0 0.0
2014-Sep-15 20:25N 38°01' E 023°32'0 0.0
2014-Sep-15 19:28N 38°01' E 023°32'0 0.1
2014-Sep-15 17:25N 38°02' E 023°32'0 0.0
2014-Sep-15 15:31N 38°02' E 023°32'0 0.0
2014-Sep-15 14:31N 38°02' E 023°32'0 0.1
2014-Sep-15 13:31N 38°02' E 023°32'0 0.0
2014-Sep-15 12:31N 38°02' E 023°32'0 0.2
2014-Sep-15 11:28N 38°01' E 023°32'0 0.2
2014-Sep-15 10:31N 38°02' E 023°32'0 0.0
2014-Sep-15 09:28N 38°02' E 023°32'0 0.0
2014-Sep-15 08:31N 38°02' E 023°32'0 0.0
2014-Sep-15 07:28N 38°02' E 023°32'0 0.2
2014-Sep-15 06:31N 38°01' E 023°32'0 0.0
2014-Sep-15 05:31N 38°01' E 023°32'0 0.0
2014-Sep-15 04:28N 38°01' E 023°32'0 0.0
2014-Sep-15 03:31N 38°01' E 023°32'0 0.1
2014-Sep-15 02:31N 38°01' E 023°32'0 0.0
2014-Sep-15 01:31N 38°01' E 023°32'0 0.1
2014-Sep-15 00:25N 38°01' E 023°32'0 0.1
2014-Sep-14 23:31N 38°01' E 023°32'0 0.0
2014-Sep-14 22:31N 38°01' E 023°32'0 0.0
2014-Sep-14 21:31N 38°01' E 023°32'0 0.1
2014-Sep-14 20:31N 38°02' E 023°32'0 0.1
2014-Sep-14 19:25N 38°02' E 023°32'0 0.0
2014-Sep-14 18:31N 38°02' E 023°32'0 0.0
2014-Sep-14 17:31N 38°02' E 023°32'0 0.0
2014-Sep-14 16:13N 38°02' E 023°32'0 0.0
2014-Sep-14 08:33N 38°02' E 023°32'0 0.0
2014-Sep-14 07:33N 38°02' E 023°32'0 0.0
2014-Sep-13 06:30N 38°01' E 023°32'0 0.0
2014-Sep-13 05:21N 38°01' E 023°32'0 0.0
2014-Sep-13 04:15N 38°01' E 023°32'0 0.0
2014-Sep-13 03:33N 38°01' E 023°32'0 0.0
2014-Sep-12 23:08N 38°02' E 023°32'0 0.1
2014-Sep-12 22:26N 38°01' E 023°32'0 0.0
2014-Sep-12 21:14N 38°01' E 023°32'0 0.1
2014-Sep-12 20:11N 38°02' E 023°32'0 0.1
2014-Sep-12 19:26N 38°02' E 023°32'0 0.0
2014-Sep-12 18:26N 38°02' E 023°32'0 0.0
2014-Sep-12 17:32N 38°02' E 023°32'0 0.0
2014-Sep-12 14:32N 38°02' E 023°32'0 0.0
2014-Sep-12 08:11N 38°01' E 023°32'0 0.2
2014-Sep-12 07:32N 38°01' E 023°32'4 4.5
2014-Sep-12 06:33N 37°57' E 023°34'6 5.6
2014-Sep-12 05:33N 37°52' E 023°38'8 7.9
2014-Sep-12 04:33N 37°45' E 023°43'8 8.5
2014-Sep-12 03:33N 37°38' E 023°48'10 8.9
2014-Sep-12 02:25N 37°32' E 023°59'8 8.9
2014-Sep-12 01:33N 37°27' E 024°06'10 8.9
2014-Sep-12 00:26N 37°20' E 024°15'7 8.5
2014-Sep-11 23:33N 37°16' E 024°23'9 8.6
2014-Sep-11 22:33N 37°14' E 024°33'9 9.3
2014-Sep-11 21:33N 37°07' E 024°41'1010.2
2014-Sep-11 20:33N 36°60' E 024°50'1010.0
2014-Sep-11 19:33N 36°54' E 025°00'1010.3
2014-Sep-11 18:33N 36°51' E 025°13'1010.0
2014-Sep-11 17:33N 36°48' E 025°24'10 9.8
2014-Sep-11 16:33N 36°43' E 025°35'1110.7
2014-Sep-11 15:33N 36°38' E 025°46'1111.3
2014-Sep-11 14:33N 36°31' E 025°58'1111.3
2014-Sep-11 13:33N 36°25' E 026°10'1211.5
2014-Sep-11 12:33N 36°19' E 026°22'  
2014-Sep-09 00:27N 32°52' E 034°56'9 9.4
2014-Sep-08 23:33N 32°54' E 034°46'  
Track history (hours):
 
Tides and Currents Weather Stations Pressure Air Temp Water Temp Dewpoint Dewpoint Depression Visibility Wind Speed Wind Dir Waves Ship Positions

Egmondgracht

Last reported at 2014-Sep-16 18:32 UTC. Time now 2014-Sep-16 19:32 UTC.
Position N 38°01' E 023°32'.

Length 136 m; beam 19 m; draft 9 m.

Type: Cargo ship. MMSI: 245716000.

Date/timePositionNaut miles runAvg speedWind from/ knotsBaromVisibWave heightAir tempDewpointWater temp
2014-Sep-16 18:32N 38°01' E 023°32'0 0.0
2014-Sep-16 17:32N 38°01' E 023°32'0 0.0
2014-Sep-16 16:32N 38°01' E 023°32'0 0.0
2014-Sep-16 15:29N 38°01' E 023°32'0 0.0
2014-Sep-16 14:32N 38°01' E 023°32'0 0.0
2014-Sep-16 13:32N 38°01' E 023°32'0 0.1
2014-Sep-16 11:32N 38°02' E 023°32'0 0.0
2014-Sep-16 08:17N 38°01' E 023°32'0 0.0
2014-Sep-16 07:32N 38°01' E 023°32'0 0.0
2014-Sep-16 06:32N 38°01' E 023°32'0 0.0
2014-Sep-16 05:32N 38°01' E 023°32'0 0.0
2014-Sep-16 04:17N 38°01' E 023°32'0 0.0
2014-Sep-16 03:16N 38°01' E 023°32'0 0.0
2014-Sep-16 02:31N 38°01' E 023°32'0 0.0
2014-Sep-16 01:31N 38°01' E 023°32'0 0.0
2014-Sep-16 00:31N 38°01' E 023°32'0 0.0
2014-Sep-15 23:16N 38°01' E 023°32'0 0.0
2014-Sep-15 22:28N 38°01' E 023°32'0 0.0
2014-Sep-15 21:16N 38°01' E 023°32'0 0.0
2014-Sep-15 20:25N 38°01' E 023°32'0 0.0
2014-Sep-15 19:28N 38°01' E 023°32'0 0.1
2014-Sep-15 17:25N 38°02' E 023°32'0 0.0
2014-Sep-15 15:31N 38°02' E 023°32'0 0.0
2014-Sep-15 14:31N 38°02' E 023°32'0 0.1
2014-Sep-15 13:31N 38°02' E 023°32'0 0.0
2014-Sep-15 12:31N 38°02' E 023°32'0 0.2
2014-Sep-15 11:28N 38°01' E 023°32'0 0.2
2014-Sep-15 10:31N 38°02' E 023°32'0 0.0
2014-Sep-15 09:28N 38°02' E 023°32'0 0.0
2014-Sep-15 08:31N 38°02' E 023°32'0 0.0
2014-Sep-15 07:28N 38°02' E 023°32'0 0.2
2014-Sep-15 06:31N 38°01' E 023°32'0 0.0
2014-Sep-15 05:31N 38°01' E 023°32'0 0.0
2014-Sep-15 04:28N 38°01' E 023°32'0 0.0
2014-Sep-15 03:31N 38°01' E 023°32'0 0.1
2014-Sep-15 02:31N 38°01' E 023°32'0 0.0
2014-Sep-15 01:31N 38°01' E 023°32'0 0.1
2014-Sep-15 00:25N 38°01' E 023°32'0 0.1
2014-Sep-14 23:31N 38°01' E 023°32'0 0.0
2014-Sep-14 22:31N 38°01' E 023°32'0 0.0
2014-Sep-14 21:31N 38°01' E 023°32'0 0.1
2014-Sep-14 20:31N 38°02' E 023°32'0 0.1
2014-Sep-14 19:25N 38°02' E 023°32'0 0.0
2014-Sep-14 18:31N 38°02' E 023°32'0 0.0
2014-Sep-14 17:31N 38°02' E 023°32'0 0.0
2014-Sep-14 16:13N 38°02' E 023°32'0 0.0
2014-Sep-14 08:33N 38°02' E 023°32'0 0.0
2014-Sep-14 07:33N 38°02' E 023°32'0 0.0
2014-Sep-13 06:30N 38°01' E 023°32'0 0.0
2014-Sep-13 05:21N 38°01' E 023°32'0 0.0
2014-Sep-13 04:15N 38°01' E 023°32'0 0.0
2014-Sep-13 03:33N 38°01' E 023°32'0 0.0
2014-Sep-12 23:08N 38°02' E 023°32'0 0.1
2014-Sep-12 22:26N 38°01' E 023°32'0 0.0
2014-Sep-12 21:14N 38°01' E 023°32'0 0.1
2014-Sep-12 20:11N 38°02' E 023°32'0 0.1
2014-Sep-12 19:26N 38°02' E 023°32'0 0.0
2014-Sep-12 18:26N 38°02' E 023°32'0 0.0
2014-Sep-12 17:32N 38°02' E 023°32'0 0.0
2014-Sep-12 14:32N 38°02' E 023°32'0 0.0
2014-Sep-12 08:11N 38°01' E 023°32'0 0.2
2014-Sep-12 07:32N 38°01' E 023°32'4 4.5
2014-Sep-12 06:33N 37°57' E 023°34'6 5.6
2014-Sep-12 05:33N 37°52' E 023°38'8 7.9
2014-Sep-12 04:33N 37°45' E 023°43'8 8.5
2014-Sep-12 03:33N 37°38' E 023°48'10 8.9
2014-Sep-12 02:25N 37°32' E 023°59'8 8.9
2014-Sep-12 01:33N 37°27' E 024°06'10 8.9
2014-Sep-12 00:26N 37°20' E 024°15'7 8.5
2014-Sep-11 23:33N 37°16' E 024°23'9 8.6
2014-Sep-11 22:33N 37°14' E 024°33'9 9.3
2014-Sep-11 21:33N 37°07' E 024°41'1010.2
2014-Sep-11 20:33N 36°60' E 024°50'1010.0
2014-Sep-11 19:33N 36°54' E 025°00'1010.3
2014-Sep-11 18:33N 36°51' E 025°13'1010.0
2014-Sep-11 17:33N 36°48' E 025°24'10 9.8
2014-Sep-11 16:33N 36°43' E 025°35'1110.7
2014-Sep-11 15:33N 36°38' E 025°46'1111.3
2014-Sep-11 14:33N 36°31' E 025°58'1111.3
2014-Sep-11 13:33N 36°25' E 026°10'1211.5
2014-Sep-11 12:33N 36°19' E 026°22'  
2014-Sep-09 00:27N 32°52' E 034°56'9 9.4
2014-Sep-08 23:33N 32°54' E 034°46'  

Dump ship's entire track history